sensor_id;sensor_type;location;lat;lon;timestamp;temperature;humidity
12769;DHT22;6448;48.916;8.990;2022-10-16T02:28:48;21.00;62.60
12769;DHT22;6448;48.916;8.990;2022-10-16T06:16:29;20.80;62.20
12769;DHT22;6448;48.916;8.990;2022-10-16T06:22:25;20.80;62.20
12769;DHT22;6448;48.916;8.990;2022-10-16T06:26:10;20.80;62.20
12769;DHT22;6448;48.916;8.990;2022-10-16T06:26:48;20.70;62.20
12769;DHT22;6448;48.916;8.990;2022-10-16T06:28:46;20.70;62.20
12769;DHT22;6448;48.916;8.990;2022-10-16T06:33:21;20.70;62.30
12769;DHT22;6448;48.916;8.990;2022-10-16T06:35:09;20.80;62.50
12769;DHT22;6448;48.916;8.990;2022-10-16T06:39:18;20.70;62.50
12769;DHT22;6448;48.916;8.990;2022-10-16T06:41:18;20.70;62.60
12769;DHT22;6448;48.916;8.990;2022-10-16T06:43:35;20.70;62.60
12769;DHT22;6448;48.916;8.990;2022-10-16T06:50:06;20.60;62.80
12769;DHT22;6448;48.916;8.990;2022-10-16T06:52:21;20.60;62.90
12769;DHT22;6448;48.916;8.990;2022-10-16T06:54:46;20.60;63.10
12769;DHT22;6448;48.916;8.990;2022-10-16T06:58:00;20.70;63.10
12769;DHT22;6448;48.916;8.990;2022-10-16T07:01:01;20.60;63.20
12769;DHT22;6448;48.916;8.990;2022-10-16T07:03:07;20.60;63.20
12769;DHT22;6448;48.916;8.990;2022-10-16T07:05:00;20.70;63.30
12769;DHT22;6448;48.916;8.990;2022-10-16T07:06:46;20.70;63.40
12769;DHT22;6448;48.916;8.990;2022-10-16T07:12:38;20.60;63.40
12769;DHT22;6448;48.916;8.990;2022-10-16T07:14:20;20.60;63.40
12769;DHT22;6448;48.916;8.990;2022-10-16T07:22:53;20.70;63.60
12769;DHT22;6448;48.916;8.990;2022-10-16T07:23:59;20.70;63.70
12769;DHT22;6448;48.916;8.990;2022-10-16T07:27:48;20.70;63.70
12769;DHT22;6448;48.916;8.990;2022-10-16T07:29:52;20.70;63.60
12769;DHT22;6448;48.916;8.990;2022-10-16T07:33:50;20.70;63.80
12769;DHT22;6448;48.916;8.990;2022-10-16T07:35:55;20.70;63.80
12769;DHT22;6448;48.916;8.990;2022-10-16T07:37:51;20.80;63.90
12769;DHT22;6448;48.916;8.990;2022-10-16T07:39:47;20.80;64.00
12769;DHT22;6448;48.916;8.990;2022-10-16T07:42:08;20.70;64.00
12769;DHT22;6448;48.916;8.990;2022-10-16T07:46:45;20.80;64.10
12769;DHT22;6448;48.916;8.990;2022-10-16T07:48:29;20.80;64.20
12769;DHT22;6448;48.916;8.990;2022-10-16T07:50:24;20.80;64.10
12769;DHT22;6448;48.916;8.990;2022-10-16T07:52:32;20.80;64.30
12769;DHT22;6448;48.916;8.990;2022-10-16T07:54:27;20.80;64.60
12769;DHT22;6448;48.916;8.990;2022-10-16T09:06:59;21.80;65.10
12769;DHT22;6448;48.916;8.990;2022-10-16T09:08:10;21.80;65.00
12769;DHT22;6448;48.916;8.990;2022-10-16T09:09:42;21.80;64.90
12769;DHT22;6448;48.916;8.990;2022-10-16T09:10:52;21.80;65.00
12769;DHT22;6448;48.916;8.990;2022-10-16T09:12:02;21.80;65.00
12769;DHT22;6448;48.916;8.990;2022-10-16T09:13:14;21.80;64.90
12769;DHT22;6448;48.916;8.990;2022-10-16T09:14:30;21.80;64.80
12769;DHT22;6448;48.916;8.990;2022-10-16T09:15:40;21.90;64.90
12769;DHT22;6448;48.916;8.990;2022-10-16T09:16:48;21.90;64.80
12769;DHT22;6448;48.916;8.990;2022-10-16T09:17:56;21.90;64.70
12769;DHT22;6448;48.916;8.990;2022-10-16T09:19:04;21.90;64.80
12769;DHT22;6448;48.916;8.990;2022-10-16T09:20:28;22.00;64.80
12769;DHT22;6448;48.916;8.990;2022-10-16T09:21:36;22.00;64.80
12769;DHT22;6448;48.916;8.990;2022-10-16T09:22:39;22.00;65.60
12769;DHT22;6448;48.916;8.990;2022-10-16T09:23:41;22.00;64.70
12769;DHT22;6448;48.916;8.990;2022-10-16T09:24:42;21.80;64.60
12769;DHT22;6448;48.916;8.990;2022-10-16T09:25:48;22.00;64.80
12769;DHT22;6448;48.916;8.990;2022-10-16T09:26:49;22.00;64.80
12769;DHT22;6448;48.916;8.990;2022-10-16T09:27:53;22.00;64.80
12769;DHT22;6448;48.916;8.990;2022-10-16T09:28:54;22.00;64.40
12769;DHT22;6448;48.916;8.990;2022-10-16T09:29:55;22.10;64.30
12769;DHT22;6448;48.916;8.990;2022-10-16T09:30:56;22.10;64.10
12769;DHT22;6448;48.916;8.990;2022-10-16T09:32:09;22.10;63.90
12769;DHT22;6448;48.916;8.990;2022-10-16T09:33:12;22.10;63.90
12769;DHT22;6448;48.916;8.990;2022-10-16T09:34:20;22.10;63.50
12769;DHT22;6448;48.916;8.990;2022-10-16T09:35:31;22.10;63.20
12769;DHT22;6448;48.916;8.990;2022-10-16T09:36:39;22.10;63.00
12769;DHT22;6448;48.916;8.990;2022-10-16T09:37:47;22.10;62.90
12769;DHT22;6448;48.916;8.990;2022-10-16T09:38:49;22.20;63.00
12769;DHT22;6448;48.916;8.990;2022-10-16T09:39:52;22.00;62.80
12769;DHT22;6448;48.916;8.990;2022-10-16T09:40:53;22.20;62.90
12769;DHT22;6448;48.916;8.990;2022-10-16T09:41:56;22.20;62.60
12769;DHT22;6448;48.916;8.990;2022-10-16T09:43:16;22.20;62.70
12769;DHT22;6448;48.916;8.990;2022-10-16T09:44:24;22.30;62.70
12769;DHT22;6448;48.916;8.990;2022-10-16T09:45:27;22.30;62.60
12769;DHT22;6448;48.916;8.990;2022-10-16T09:46:29;22.30;62.50
12769;DHT22;6448;48.916;8.990;2022-10-16T09:47:32;22.40;62.40
12769;DHT22;6448;48.916;8.990;2022-10-16T09:48:39;22.40;62.20
12769;DHT22;6448;48.916;8.990;2022-10-16T09:49:51;22.30;62.10
12769;DHT22;6448;48.916;8.990;2022-10-16T09:50:58;22.30;62.10
12769;DHT22;6448;48.916;8.990;2022-10-16T09:52:04;22.40;62.00
12769;DHT22;6448;48.916;8.990;2022-10-16T09:53:11;22.40;61.70
12769;DHT22;6448;48.916;8.990;2022-10-16T09:54:15;22.40;61.20
12769;DHT22;6448;48.916;8.990;2022-10-16T09:55:18;22.40;60.80
12769;DHT22;6448;48.916;8.990;2022-10-16T09:56:25;22.50;60.80
12769;DHT22;6448;48.916;8.990;2022-10-16T09:57:27;22.40;60.40
12769;DHT22;6448;48.916;8.990;2022-10-16T09:58:30;22.50;60.30
12769;DHT22;6448;48.916;8.990;2022-10-16T09:59:33;22.50;60.80
12769;DHT22;6448;48.916;8.990;2022-10-16T10:00:35;22.50;59.90
12769;DHT22;6448;48.916;8.990;2022-10-16T10:01:38;22.50;59.90
12769;DHT22;6448;48.916;8.990;2022-10-16T10:02:40;22.50;59.80
12769;DHT22;6448;48.916;8.990;2022-10-16T10:03:42;22.50;59.80
12769;DHT22;6448;48.916;8.990;2022-10-16T10:04:49;22.60;59.90
12769;DHT22;6448;48.916;8.990;2022-10-16T10:05:54;22.60;59.90
12769;DHT22;6448;48.916;8.990;2022-10-16T10:06:56;22.60;59.80
12769;DHT22;6448;48.916;8.990;2022-10-16T10:08:00;22.70;59.60
12769;DHT22;6448;48.916;8.990;2022-10-16T10:09:06;22.60;59.40
12769;DHT22;6448;48.916;8.990;2022-10-16T10:10:21;22.70;59.90
12769;DHT22;6448;48.916;8.990;2022-10-16T10:11:43;22.70;59.20
12769;DHT22;6448;48.916;8.990;2022-10-16T10:12:45;22.70;59.40
12769;DHT22;6448;48.916;8.990;2022-10-16T10:13:47;22.70;59.40
12769;DHT22;6448;48.916;8.990;2022-10-16T10:14:49;22.70;59.50
12769;DHT22;6448;48.916;8.990;2022-10-16T10:15:53;22.70;59.50
12769;DHT22;6448;48.916;8.990;2022-10-16T10:17:10;22.80;59.60
12769;DHT22;6448;48.916;8.990;2022-10-16T10:18:17;22.70;59.40
12769;DHT22;6448;48.916;8.990;2022-10-16T10:19:21;22.80;59.50
12769;DHT22;6448;48.916;8.990;2022-10-16T10:20:25;22.80;59.60
12769;DHT22;6448;48.916;8.990;2022-10-16T10:21:27;22.80;59.70
12769;DHT22;6448;48.916;8.990;2022-10-16T10:22:32;22.80;59.80
12769;DHT22;6448;48.916;8.990;2022-10-16T10:23:41;22.80;59.90
12769;DHT22;6448;48.916;8.990;2022-10-16T10:24:44;22.90;60.20
12769;DHT22;6448;48.916;8.990;2022-10-16T10:25:51;22.80;60.20
12769;DHT22;6448;48.916;8.990;2022-10-16T10:27:00;22.80;60.20
12769;DHT22;6448;48.916;8.990;2022-10-16T10:28:32;22.80;60.00
12769;DHT22;6448;48.916;8.990;2022-10-16T10:29:47;22.90;59.90
12769;DHT22;6448;48.916;8.990;2022-10-16T10:31:00;22.90;60.10
12769;DHT22;6448;48.916;8.990;2022-10-16T10:32:12;22.90;60.40
12769;DHT22;6448;48.916;8.990;2022-10-16T10:33:24;22.90;60.50
12769;DHT22;6448;48.916;8.990;2022-10-16T10:34:39;22.80;60.50
12769;DHT22;6448;48.916;8.990;2022-10-16T10:35:47;22.90;60.60
12769;DHT22;6448;48.916;8.990;2022-10-16T10:36:54;23.00;60.70
12769;DHT22;6448;48.916;8.990;2022-10-16T10:38:05;23.00;60.60
12769;DHT22;6448;48.916;8.990;2022-10-16T10:39:15;23.00;60.70
12769;DHT22;6448;48.916;8.990;2022-10-16T10:40:30;23.00;60.60
12769;DHT22;6448;48.916;8.990;2022-10-16T10:41:51;23.00;60.50
12769;DHT22;6448;48.916;8.990;2022-10-16T10:42:59;23.10;60.60
12769;DHT22;6448;48.916;8.990;2022-10-16T10:44:07;23.10;60.50
12769;DHT22;6448;48.916;8.990;2022-10-16T10:45:18;23.10;60.50
12769;DHT22;6448;48.916;8.990;2022-10-16T10:46:28;23.00;60.20
12769;DHT22;6448;48.916;8.990;2022-10-16T10:47:43;23.20;60.00
12769;DHT22;6448;48.916;8.990;2022-10-16T10:49:00;23.20;60.00
12769;DHT22;6448;48.916;8.990;2022-10-16T10:50:10;23.20;59.90
12769;DHT22;6448;48.916;8.990;2022-10-16T10:51:21;23.30;59.60
12769;DHT22;6448;48.916;8.990;2022-10-16T10:52:41;23.20;59.60
12769;DHT22;6448;48.916;8.990;2022-10-16T10:53:49;23.20;59.40
12769;DHT22;6448;48.916;8.990;2022-10-16T10:54:57;23.30;59.30
12769;DHT22;6448;48.916;8.990;2022-10-16T10:56:14;23.30;59.20
12769;DHT22;6448;48.916;8.990;2022-10-16T10:57:22;23.30;59.20
12769;DHT22;6448;48.916;8.990;2022-10-16T10:59:01;23.30;59.10
12769;DHT22;6448;48.916;8.990;2022-10-16T11:00:13;23.40;59.20
12769;DHT22;6448;48.916;8.990;2022-10-16T11:01:21;23.40;59.00
12769;DHT22;6448;48.916;8.990;2022-10-16T11:02:32;23.40;58.90
12769;DHT22;6448;48.916;8.990;2022-10-16T11:04:15;23.40;59.00
12769;DHT22;6448;48.916;8.990;2022-10-16T11:05:31;23.40;59.10
12769;DHT22;6448;48.916;8.990;2022-10-16T11:06:40;23.40;59.20
12769;DHT22;6448;48.916;8.990;2022-10-16T11:07:47;23.50;59.30
12769;DHT22;6448;48.916;8.990;2022-10-16T11:08:52;23.50;59.10
12769;DHT22;6448;48.916;8.990;2022-10-16T11:09:58;23.50;58.90
12769;DHT22;6448;48.916;8.990;2022-10-16T11:11:05;23.40;58.60
12769;DHT22;6448;48.916;8.990;2022-10-16T11:12:14;23.60;58.60
12769;DHT22;6448;48.916;8.990;2022-10-16T11:13:30;23.60;58.60
12769;DHT22;6448;48.916;8.990;2022-10-16T11:14:36;23.60;58.40
12769;DHT22;6448;48.916;8.990;2022-10-16T11:15:40;23.60;58.40
12769;DHT22;6448;48.916;8.990;2022-10-16T11:16:50;23.60;58.50
12769;DHT22;6448;48.916;8.990;2022-10-16T11:17:57;23.60;58.60
12769;DHT22;6448;48.916;8.990;2022-10-16T11:19:08;23.60;58.70
12769;DHT22;6448;48.916;8.990;2022-10-16T11:20:14;23.70;58.90
12769;DHT22;6448;48.916;8.990;2022-10-16T11:21:19;23.70;58.80
12769;DHT22;6448;48.916;8.990;2022-10-16T11:22:25;23.70;58.90
12769;DHT22;6448;48.916;8.990;2022-10-16T11:23:31;23.70;59.10
12769;DHT22;6448;48.916;8.990;2022-10-16T11:24:42;23.70;59.30
12769;DHT22;6448;48.916;8.990;2022-10-16T11:25:48;23.70;59.20
12769;DHT22;6448;48.916;8.990;2022-10-16T11:26:54;23.70;59.20
12769;DHT22;6448;48.916;8.990;2022-10-16T11:28:01;23.80;59.10
12769;DHT22;6448;48.916;8.990;2022-10-16T11:29:05;23.80;58.70
12769;DHT22;6448;48.916;8.990;2022-10-16T11:30:16;23.80;58.30
12769;DHT22;6448;48.916;8.990;2022-10-16T11:31:24;23.80;58.20
12769;DHT22;6448;48.916;8.990;2022-10-16T11:32:30;23.80;58.20
12769;DHT22;6448;48.916;8.990;2022-10-16T11:33:39;23.90;58.20
12769;DHT22;6448;48.916;8.990;2022-10-16T11:34:47;23.90;57.90
12769;DHT22;6448;48.916;8.990;2022-10-16T11:35:53;23.90;58.10
12769;DHT22;6448;48.916;8.990;2022-10-16T11:37:01;23.90;58.10
12769;DHT22;6448;48.916;8.990;2022-10-16T11:38:11;23.90;57.90
12769;DHT22;6448;48.916;8.990;2022-10-16T11:39:19;24.00;57.90
12769;DHT22;6448;48.916;8.990;2022-10-16T11:40:25;24.00;57.80
12769;DHT22;6448;48.916;8.990;2022-10-16T11:41:32;24.00;57.90
12769;DHT22;6448;48.916;8.990;2022-10-16T11:42:41;24.00;57.80
12769;DHT22;6448;48.916;8.990;2022-10-16T11:43:50;24.10;57.40
12769;DHT22;6448;48.916;8.990;2022-10-16T11:44:57;24.00;57.00
12769;DHT22;6448;48.916;8.990;2022-10-16T11:46:05;24.10;57.00
12769;DHT22;6448;48.916;8.990;2022-10-16T11:47:22;24.10;57.20
12769;DHT22;6448;48.916;8.990;2022-10-16T11:48:30;24.10;56.90
12769;DHT22;6448;48.916;8.990;2022-10-16T11:49:33;24.20;56.70
12769;DHT22;6448;48.916;8.990;2022-10-16T11:50:39;24.20;56.60
12769;DHT22;6448;48.916;8.990;2022-10-16T11:51:45;24.10;56.40
12769;DHT22;6448;48.916;8.990;2022-10-16T11:52:55;24.30;56.40
12769;DHT22;6448;48.916;8.990;2022-10-16T11:53:59;24.20;56.40
12769;DHT22;6448;48.916;8.990;2022-10-16T11:55:08;24.30;56.80
12769;DHT22;6448;48.916;8.990;2022-10-16T11:56:16;24.30;56.90
12769;DHT22;6448;48.916;8.990;2022-10-16T11:57:21;24.30;57.20
12769;DHT22;6448;48.916;8.990;2022-10-16T11:58:28;24.30;57.30
12769;DHT22;6448;48.916;8.990;2022-10-16T11:59:37;24.30;57.30
12769;DHT22;6448;48.916;8.990;2022-10-16T12:00:47;24.40;57.30
12769;DHT22;6448;48.916;8.990;2022-10-16T12:01:55;24.40;57.30
12769;DHT22;6448;48.916;8.990;2022-10-16T12:03:02;24.40;57.10
12769;DHT22;6448;48.916;8.990;2022-10-16T12:04:16;24.40;57.10
12769;DHT22;6448;48.916;8.990;2022-10-16T12:05:25;24.40;57.20
12769;DHT22;6448;48.916;8.990;2022-10-16T12:06:34;24.50;56.90
12769;DHT22;6448;48.916;8.990;2022-10-16T12:07:41;24.50;56.90
12769;DHT22;6448;48.916;8.990;2022-10-16T12:08:45;24.50;56.90
12769;DHT22;6448;48.916;8.990;2022-10-16T12:09:48;24.50;56.90
12769;DHT22;6448;48.916;8.990;2022-10-16T12:10:49;24.40;56.80
12769;DHT22;6448;48.916;8.990;2022-10-16T12:11:50;24.50;56.80
12769;DHT22;6448;48.916;8.990;2022-10-16T12:12:51;24.50;56.60
12769;DHT22;6448;48.916;8.990;2022-10-16T12:14:18;24.60;56.60
12769;DHT22;6448;48.916;8.990;2022-10-16T12:15:24;24.50;56.70
12769;DHT22;6448;48.916;8.990;2022-10-16T12:16:26;24.50;57.50
12769;DHT22;6448;48.916;8.990;2022-10-16T12:17:35;24.60;57.10
12769;DHT22;6448;48.916;8.990;2022-10-16T12:18:37;24.60;57.00
12769;DHT22;6448;48.916;8.990;2022-10-16T12:19:38;24.60;57.00
12769;DHT22;6448;48.916;8.990;2022-10-16T12:20:40;24.50;56.90
12769;DHT22;6448;48.916;8.990;2022-10-16T12:21:46;24.60;56.90
12769;DHT22;6448;48.916;8.990;2022-10-16T12:22:50;24.60;56.90
12769;DHT22;6448;48.916;8.990;2022-10-16T12:23:56;24.60;56.90
12769;DHT22;6448;48.916;8.990;2022-10-16T12:24:59;24.60;56.80
12769;DHT22;6448;48.916;8.990;2022-10-16T12:26:00;24.70;56.80
12769;DHT22;6448;48.916;8.990;2022-10-16T12:27:04;24.70;56.90
12769;DHT22;6448;48.916;8.990;2022-10-16T12:28:18;24.70;57.00
12769;DHT22;6448;48.916;8.990;2022-10-16T12:29:31;24.70;56.90
12769;DHT22;6448;48.916;8.990;2022-10-16T12:30:35;24.70;56.90
12769;DHT22;6448;48.916;8.990;2022-10-16T12:31:38;24.70;56.90
12769;DHT22;6448;48.916;8.990;2022-10-16T12:32:53;24.70;56.80
12769;DHT22;6448;48.916;8.990;2022-10-16T12:33:58;24.70;56.70
12769;DHT22;6448;48.916;8.990;2022-10-16T12:35:00;24.70;56.70
12769;DHT22;6448;48.916;8.990;2022-10-16T12:36:05;24.70;56.60
12769;DHT22;6448;48.916;8.990;2022-10-16T12:37:13;24.80;56.60
12769;DHT22;6448;48.916;8.990;2022-10-16T12:38:18;24.70;56.60
12769;DHT22;6448;48.916;8.990;2022-10-16T12:39:21;24.80;57.30
12769;DHT22;6448;48.916;8.990;2022-10-16T12:40:27;24.70;56.60
12769;DHT22;6448;48.916;8.990;2022-10-16T12:41:30;24.80;56.50
12769;DHT22;6448;48.916;8.990;2022-10-16T12:42:34;24.80;56.60
12769;DHT22;6448;48.916;8.990;2022-10-16T12:43:38;24.70;56.60
12769;DHT22;6448;48.916;8.990;2022-10-16T12:44:41;24.80;56.60
12769;DHT22;6448;48.916;8.990;2022-10-16T12:45:42;24.70;56.40
12769;DHT22;6448;48.916;8.990;2022-10-16T12:46:45;24.80;56.40
12769;DHT22;6448;48.916;8.990;2022-10-16T12:47:49;24.80;56.50
12769;DHT22;6448;48.916;8.990;2022-10-16T12:48:51;24.80;56.60
12769;DHT22;6448;48.916;8.990;2022-10-16T12:49:53;24.80;56.70
12769;DHT22;6448;48.916;8.990;2022-10-16T12:50:55;24.80;56.70
12769;DHT22;6448;48.916;8.990;2022-10-16T12:51:56;24.90;56.70
12769;DHT22;6448;48.916;8.990;2022-10-16T12:52:59;24.80;56.40
12769;DHT22;6448;48.916;8.990;2022-10-16T12:54:01;24.80;56.30
12769;DHT22;6448;48.916;8.990;2022-10-16T12:55:05;24.80;56.20
12769;DHT22;6448;48.916;8.990;2022-10-16T12:56:16;24.90;56.20
12769;DHT22;6448;48.916;8.990;2022-10-16T12:57:34;24.90;56.00
12769;DHT22;6448;48.916;8.990;2022-10-16T12:58:49;24.90;56.10
12769;DHT22;6448;48.916;8.990;2022-10-16T13:00:01;24.90;56.10
12769;DHT22;6448;48.916;8.990;2022-10-16T13:01:10;24.80;56.10
12769;DHT22;6448;48.916;8.990;2022-10-16T13:03:58;24.90;56.20
12769;DHT22;6448;48.916;8.990;2022-10-16T13:05:13;24.90;56.20
12769;DHT22;6448;48.916;8.990;2022-10-16T13:06:26;24.90;56.10
12769;DHT22;6448;48.916;8.990;2022-10-16T13:07:44;25.00;56.00
12769;DHT22;6448;48.916;8.990;2022-10-16T13:09:13;24.90;56.00
12769;DHT22;6448;48.916;8.990;2022-10-16T13:10:23;24.90;56.60
12769;DHT22;6448;48.916;8.990;2022-10-16T13:11:35;24.90;56.00
12769;DHT22;6448;48.916;8.990;2022-10-16T13:12:56;25.00;56.00
12769;DHT22;6448;48.916;8.990;2022-10-16T13:14:25;25.00;56.00
12769;DHT22;6448;48.916;8.990;2022-10-16T13:15:40;25.00;56.00
12769;DHT22;6448;48.916;8.990;2022-10-16T13:16:53;25.10;56.10
12769;DHT22;6448;48.916;8.990;2022-10-16T13:18:05;25.00;56.10
12769;DHT22;6448;48.916;8.990;2022-10-16T13:19:21;25.00;56.20
12769;DHT22;6448;48.916;8.990;2022-10-16T13:20:31;25.00;56.20
12769;DHT22;6448;48.916;8.990;2022-10-16T13:21:41;25.10;56.20
12769;DHT22;6448;48.916;8.990;2022-10-16T13:22:51;25.10;56.40
12769;DHT22;6448;48.916;8.990;2022-10-16T13:24:00;25.00;56.80
12769;DHT22;6448;48.916;8.990;2022-10-16T13:25:17;24.80;56.20
12769;DHT22;6448;48.916;8.990;2022-10-16T13:26:26;25.10;56.30
12769;DHT22;6448;48.916;8.990;2022-10-16T13:27:37;24.90;56.30
12769;DHT22;6448;48.916;8.990;2022-10-16T13:28:42;25.10;56.30
12769;DHT22;6448;48.916;8.990;2022-10-16T13:29:45;25.10;56.30
12769;DHT22;6448;48.916;8.990;2022-10-16T13:30:53;25.10;56.30
12769;DHT22;6448;48.916;8.990;2022-10-16T13:32:01;25.10;56.30
12769;DHT22;6448;48.916;8.990;2022-10-16T13:33:13;25.10;56.20
12769;DHT22;6448;48.916;8.990;2022-10-16T13:34:18;25.10;56.30
12769;DHT22;6448;48.916;8.990;2022-10-16T13:35:23;25.20;56.40
12769;DHT22;6448;48.916;8.990;2022-10-16T13:36:27;25.10;56.00
12769;DHT22;6448;48.916;8.990;2022-10-16T13:37:29;25.20;55.90
12769;DHT22;6448;48.916;8.990;2022-10-16T13:38:32;25.20;55.80
12769;DHT22;6448;48.916;8.990;2022-10-16T13:39:33;25.20;55.80
12769;DHT22;6448;48.916;8.990;2022-10-16T13:40:35;25.20;55.60
12769;DHT22;6448;48.916;8.990;2022-10-16T13:41:36;25.10;55.60
12769;DHT22;6448;48.916;8.990;2022-10-16T13:42:38;25.30;55.70
12769;DHT22;6448;48.916;8.990;2022-10-16T13:43:41;25.20;55.80
12769;DHT22;6448;48.916;8.990;2022-10-16T13:44:45;25.20;55.60
12769;DHT22;6448;48.916;8.990;2022-10-16T13:46:00;25.20;55.30
12769;DHT22;6448;48.916;8.990;2022-10-16T13:47:02;25.20;55.10
12769;DHT22;6448;48.916;8.990;2022-10-16T13:48:04;25.30;55.80
12769;DHT22;6448;48.916;8.990;2022-10-16T13:49:12;25.30;55.00
12769;DHT22;6448;48.916;8.990;2022-10-16T13:50:16;25.30;54.90
12769;DHT22;6448;48.916;8.990;2022-10-16T13:51:18;25.30;54.90
12769;DHT22;6448;48.916;8.990;2022-10-16T13:52:21;25.30;54.80
12769;DHT22;6448;48.916;8.990;2022-10-16T13:53:22;25.20;54.70
12769;DHT22;6448;48.916;8.990;2022-10-16T13:54:24;25.40;54.80
12769;DHT22;6448;48.916;8.990;2022-10-16T13:55:26;25.40;54.80
12769;DHT22;6448;48.916;8.990;2022-10-16T13:56:28;25.40;54.80
12769;DHT22;6448;48.916;8.990;2022-10-16T13:57:30;25.40;54.80
12769;DHT22;6448;48.916;8.990;2022-10-16T13:58:31;25.40;54.80
12769;DHT22;6448;48.916;8.990;2022-10-16T13:59:34;25.40;54.80
12769;DHT22;6448;48.916;8.990;2022-10-16T14:00:35;25.40;54.80
12769;DHT22;6448;48.916;8.990;2022-10-16T14:01:43;25.40;54.80
12769;DHT22;6448;48.916;8.990;2022-10-16T14:02:50;25.40;54.80
12769;DHT22;6448;48.916;8.990;2022-10-16T14:04:00;25.50;54.90
12769;DHT22;6448;48.916;8.990;2022-10-16T14:05:04;25.40;54.80
12769;DHT22;6448;48.916;8.990;2022-10-16T14:06:13;25.40;54.80
12769;DHT22;6448;48.916;8.990;2022-10-16T14:07:24;25.40;54.70
12769;DHT22;6448;48.916;8.990;2022-10-16T14:08:26;25.50;54.60
12769;DHT22;6448;48.916;8.990;2022-10-16T14:09:30;25.50;54.60
12769;DHT22;6448;48.916;8.990;2022-10-16T14:10:32;25.60;54.60
12769;DHT22;6448;48.916;8.990;2022-10-16T14:11:42;25.50;54.50
12769;DHT22;6448;48.916;8.990;2022-10-16T14:12:54;25.50;54.60
12769;DHT22;6448;48.916;8.990;2022-10-16T14:13:55;25.50;54.60
12769;DHT22;6448;48.916;8.990;2022-10-16T14:14:59;25.50;54.70
12769;DHT22;6448;48.916;8.990;2022-10-16T14:16:05;25.50;54.70
12769;DHT22;6448;48.916;8.990;2022-10-16T14:17:14;25.50;54.70
12769;DHT22;6448;48.916;8.990;2022-10-16T14:18:19;25.50;54.70
12769;DHT22;6448;48.916;8.990;2022-10-16T14:19:22;25.50;54.80
12769;DHT22;6448;48.916;8.990;2022-10-16T14:20:27;25.50;54.90
12769;DHT22;6448;48.916;8.990;2022-10-16T14:21:29;25.50;54.90
12769;DHT22;6448;48.916;8.990;2022-10-16T14:22:34;25.50;54.90
12769;DHT22;6448;48.916;8.990;2022-10-16T14:23:37;25.50;55.00
12769;DHT22;6448;48.916;8.990;2022-10-16T14:24:39;25.40;54.90
12769;DHT22;6448;48.916;8.990;2022-10-16T14:25:40;25.50;55.00
12769;DHT22;6448;48.916;8.990;2022-10-16T14:26:42;25.50;55.20
12769;DHT22;6448;48.916;8.990;2022-10-16T14:27:45;25.40;55.10
12769;DHT22;6448;48.916;8.990;2022-10-16T14:28:47;25.40;55.10
12769;DHT22;6448;48.916;8.990;2022-10-16T14:29:49;25.50;55.30
12769;DHT22;6448;48.916;8.990;2022-10-16T14:30:52;25.40;55.20
12769;DHT22;6448;48.916;8.990;2022-10-16T14:31:56;25.50;55.40
12769;DHT22;6448;48.916;8.990;2022-10-16T14:33:00;25.40;55.30
12769;DHT22;6448;48.916;8.990;2022-10-16T14:34:03;25.40;55.30
12769;DHT22;6448;48.916;8.990;2022-10-16T14:35:11;25.40;55.30
12769;DHT22;6448;48.916;8.990;2022-10-16T14:36:24;25.40;55.30
12769;DHT22;6448;48.916;8.990;2022-10-16T14:37:28;25.40;55.40
12769;DHT22;6448;48.916;8.990;2022-10-16T14:38:29;25.40;55.50
12769;DHT22;6448;48.916;8.990;2022-10-16T14:39:32;25.40;55.50
12769;DHT22;6448;48.916;8.990;2022-10-16T14:40:36;25.40;55.60
12769;DHT22;6448;48.916;8.990;2022-10-16T14:41:43;25.40;55.70
12769;DHT22;6448;48.916;8.990;2022-10-16T14:42:45;25.60;55.90
12769;DHT22;6448;48.916;8.990;2022-10-16T14:43:50;25.40;55.80
12769;DHT22;6448;48.916;8.990;2022-10-16T14:44:54;25.40;55.80
12769;DHT22;6448;48.916;8.990;2022-10-16T14:45:57;25.40;55.90
12769;DHT22;6448;48.916;8.990;2022-10-16T14:47:05;25.40;56.00
12769;DHT22;6448;48.916;8.990;2022-10-16T14:48:16;25.40;56.00
12769;DHT22;6448;48.916;8.990;2022-10-16T14:49:20;25.40;56.10
12769;DHT22;6448;48.916;8.990;2022-10-16T14:50:22;25.40;56.20
12769;DHT22;6448;48.916;8.990;2022-10-16T14:51:24;25.40;56.30
12769;DHT22;6448;48.916;8.990;2022-10-16T14:52:25;25.40;56.30
12769;DHT22;6448;48.916;8.990;2022-10-16T14:53:26;25.40;56.20
12769;DHT22;6448;48.916;8.990;2022-10-16T14:54:27;25.40;56.30
12769;DHT22;6448;48.916;8.990;2022-10-16T14:55:29;25.40;56.20
12769;DHT22;6448;48.916;8.990;2022-10-16T14:56:32;25.40;56.20
12769;DHT22;6448;48.916;8.990;2022-10-16T14:57:37;25.40;56.30
12769;DHT22;6448;48.916;8.990;2022-10-16T14:58:38;25.40;56.30
12769;DHT22;6448;48.916;8.990;2022-10-16T14:59:41;25.40;56.30
12769;DHT22;6448;48.916;8.990;2022-10-16T15:00:44;25.50;56.40
12769;DHT22;6448;48.916;8.990;2022-10-16T15:01:45;25.40;56.10
12769;DHT22;6448;48.916;8.990;2022-10-16T15:02:48;25.50;56.10
12769;DHT22;6448;48.916;8.990;2022-10-16T15:03:50;25.40;56.00
12769;DHT22;6448;48.916;8.990;2022-10-16T15:04:55;25.50;56.00
12769;DHT22;6448;48.916;8.990;2022-10-16T15:05:56;25.50;56.10
12769;DHT22;6448;48.916;8.990;2022-10-16T15:06:58;25.50;56.00
12769;DHT22;6448;48.916;8.990;2022-10-16T15:07:59;25.50;55.90
12769;DHT22;6448;48.916;8.990;2022-10-16T15:09:00;25.60;55.80
12769;DHT22;6448;48.916;8.990;2022-10-16T15:10:02;25.50;55.70
12769;DHT22;6448;48.916;8.990;2022-10-16T15:11:04;25.50;55.70
12769;DHT22;6448;48.916;8.990;2022-10-16T15:12:05;25.60;55.80
12769;DHT22;6448;48.916;8.990;2022-10-16T15:13:10;25.50;55.70
12769;DHT22;6448;48.916;8.990;2022-10-16T15:14:12;25.60;55.80
12769;DHT22;6448;48.916;8.990;2022-10-16T15:15:25;25.60;55.90
12769;DHT22;6448;48.916;8.990;2022-10-16T15:16:29;25.60;56.00
12769;DHT22;6448;48.916;8.990;2022-10-16T15:17:31;25.60;56.00
12769;DHT22;6448;48.916;8.990;2022-10-16T15:18:32;25.50;56.00
12769;DHT22;6448;48.916;8.990;2022-10-16T15:19:35;25.60;56.10
12769;DHT22;6448;48.916;8.990;2022-10-16T15:20:38;25.60;56.10
12769;DHT22;6448;48.916;8.990;2022-10-16T15:21:41;25.50;56.00
12769;DHT22;6448;48.916;8.990;2022-10-16T15:22:43;25.50;56.00
12769;DHT22;6448;48.916;8.990;2022-10-16T15:23:44;25.60;56.00
12769;DHT22;6448;48.916;8.990;2022-10-16T15:24:46;25.50;55.90
12769;DHT22;6448;48.916;8.990;2022-10-16T15:25:50;25.60;56.00
12769;DHT22;6448;48.916;8.990;2022-10-16T15:26:51;25.50;56.00
12769;DHT22;6448;48.916;8.990;2022-10-16T15:27:53;25.50;55.90
12769;DHT22;6448;48.916;8.990;2022-10-16T15:28:54;25.50;55.90
12769;DHT22;6448;48.916;8.990;2022-10-16T15:29:56;25.40;55.80
12769;DHT22;6448;48.916;8.990;2022-10-16T15:30:57;25.50;56.00
12769;DHT22;6448;48.916;8.990;2022-10-16T15:31:59;25.50;56.00
12769;DHT22;6448;48.916;8.990;2022-10-16T15:33:00;25.50;56.00
12769;DHT22;6448;48.916;8.990;2022-10-16T15:34:02;25.50;56.00
12769;DHT22;6448;48.916;8.990;2022-10-16T15:35:08;25.40;56.00
12769;DHT22;6448;48.916;8.990;2022-10-16T15:36:09;25.50;56.10
12769;DHT22;6448;48.916;8.990;2022-10-16T15:37:11;25.50;56.20